Time;durP1;ratioP1;P1;durP2;ratioP2;P2;SDS_P1;SDS_P2;PMS_P1;PMS_P2;Temp;Humidity;BMP_temperature;BMP_pressure;BME280_temperature;BME280_humidity;BME280_pressure;Samples;Min_cycle;Max_cycle;Signal;HPM_P1;HPM_P2
2021/04/05 00:00:16;;;;;;;14.57;5.72;;;6.60;99.90;;;7.32;69.03;100391.31;5031737;28;20222;-74
2021/04/05 00:02:43;;;;;;;13.82;5.70;;;6.60;99.90;;;7.27;68.86;100387.13;5041040;28;20203;-74
2021/04/05 00:05:13;;;;;;;15.13;6.60;;;6.60;99.90;;;7.22;68.99;100389.88;5042075;28;20218;-74
2021/04/05 00:07:39;;;;;;;16.48;6.38;;;6.60;99.90;;;7.20;69.09;100391.66;5027028;28;20191;-73
2021/04/05 00:10:11;;;;;;;14.23;5.75;;;6.60;99.90;;;7.20;69.19;100398.66;5020071;28;20218;-73
2021/04/05 00:12:38;;;;;;;14.27;6.28;;;6.50;99.90;;;7.14;69.54;100375.41;5009456;28;20266;-73
2021/04/05 00:15:09;;;;;;;18.60;6.60;;;6.50;99.90;;;7.12;69.47;100366.78;5018559;28;20201;-72
2021/04/05 00:17:36;;;;;;;16.45;6.63;;;6.50;99.90;;;7.09;69.71;100357.31;5020842;28;20244;-73
2021/04/05 00:20:08;;;;;;;15.63;6.45;;;6.50;99.90;;;7.06;69.78;100366.97;5011592;28;20221;-73
2021/04/05 00:22:36;;;;;;;17.08;7.18;;;6.40;99.90;;;7.04;69.98;100355.75;5021966;28;20281;-74
2021/04/05 00:25:03;;;;;;;16.85;7.43;;;6.40;99.90;;;7.01;69.69;100348.03;5005648;28;20388;-74
2021/04/05 00:27:30;;;;;;;19.38;8.50;;;6.40;99.90;;;6.98;69.64;100328.16;5006917;28;20189;-73
2021/04/05 00:29:57;;;;;;;19.17;7.85;;;6.30;99.90;;;6.96;69.89;100324.78;5009599;28;20297;-74
2021/04/05 00:32:23;;;;;;;20.90;8.15;;;6.30;99.90;;;7.00;70.32;100336.78;5015563;28;20725;-73
2021/04/05 00:34:49;;;;;;;21.73;8.40;;;6.40;99.90;;;7.00;69.81;100323.78;5022494;28;20281;-74
2021/04/05 00:37:16;;;;;;;18.95;8.65;;;6.40;99.90;;;7.00;69.91;100309.94;5028175;28;20688;-73
2021/04/05 00:39:42;;;;;;;18.90;7.72;;;6.40;99.90;;;7.02;69.89;100308.97;5006455;28;20249;-73
2021/04/05 00:42:10;;;;;;;16.77;7.38;;;6.40;99.90;;;7.01;69.83;100301.22;5015254;28;20289;-73
2021/04/05 00:44:38;;;;;;;20.17;7.80;;;6.40;99.90;;;6.98;69.92;100283.94;5015289;28;20263;-73
2021/04/05 00:47:07;;;;;;;17.33;7.93;;;6.30;99.90;;;6.93;70.32;100275.44;5024019;28;20264;-74
2021/04/05 00:49:33;;;;;;;16.42;6.88;;;6.30;99.90;;;6.92;70.30;100258.13;5021527;28;20333;-73
2021/04/05 00:52:00;;;;;;;17.33;7.20;;;6.20;99.90;;;6.88;70.22;100259.13;5018519;28;20195;-74
2021/04/05 00:54:27;;;;;;;14.93;6.70;;;6.20;99.90;;;6.82;70.25;100248.91;5009750;28;20233;-74
2021/04/05 00:56:53;;;;;;;18.90;6.90;;;6.20;99.90;;;6.79;70.71;100246.41;5021096;28;20667;-73
2021/04/05 00:59:20;;;;;;;15.27;6.75;;;6.10;99.90;;;6.75;70.67;100236.97;5002758;28;20210;-73
2021/04/05 01:01:47;;;;;;;15.00;5.65;;;6.00;99.90;;;6.71;71.05;100230.19;5008850;28;20555;-74
2021/04/05 01:04:14;;;;;;;17.08;6.40;;;6.00;99.90;;;6.69;70.83;100226.78;5003566;28;20195;-73
2021/04/05 01:06:41;;;;;;;15.82;6.32;;;6.00;99.90;;;6.67;71.23;100227.72;5001897;28;21152;-73
2021/04/05 01:09:08;;;;;;;13.07;5.78;;;5.90;99.90;;;6.65;71.47;100222.56;5003332;28;20415;-73
2021/04/05 01:11:36;;;;;;;18.48;6.40;;;5.90;99.90;;;6.66;71.33;100231.22;5006533;28;20205;-73
2021/04/05 01:14:03;;;;;;;13.90;5.38;;;5.90;99.90;;;6.63;71.12;100213.94;5032611;28;20213;-73
2021/04/05 01:16:31;;;;;;;14.90;5.90;;;5.90;99.90;;;6.59;71.38;100199.38;5021080;28;20203;-73
2021/04/05 01:19:01;;;;;;;14.45;5.63;;;5.90;99.90;;;6.60;71.23;100189.81;5002411;28;20770;-73
2021/04/05 01:21:28;;;;;;;15.30;5.20;;;5.90;99.90;;;6.52;71.63;100165.78;5007264;28;20226;-73
2021/04/05 01:23:56;;;;;;;16.45;5.78;;;5.80;99.90;;;6.50;71.72;100160.66;4998439;28;20285;-73
2021/04/05 01:26:22;;;;;;;13.77;5.63;;;5.80;99.90;;;6.51;71.49;100151.97;5029427;28;20216;-74
2021/04/05 01:28:49;;;;;;;12.82;4.93;;;5.80;99.90;;;6.53;71.51;100152.75;5005506;28;20214;-73
2021/04/05 01:31:15;;;;;;;13.43;5.22;;;5.80;99.90;;;6.50;71.63;100139.84;5021988;28;20198;-75
2021/04/05 01:33:43;;;;;;;20.08;6.30;;;5.80;99.90;;;6.47;71.52;100131.31;5024683;28;20672;-73
2021/04/05 01:36:13;;;;;;;14.27;5.45;;;5.80;99.90;;;6.45;72.00;100118.34;5009840;28;20203;-73
2021/04/05 01:38:43;;;;;;;13.65;5.82;;;5.80;99.90;;;6.47;71.45;100111.38;4998819;28;20230;-73
2021/04/05 01:41:14;;;;;;;15.32;5.65;;;5.80;99.90;;;6.44;71.68;100115.81;5024194;28;20211;-73
2021/04/05 01:43:41;;;;;;;17.10;6.38;;;5.70;99.90;;;6.47;72.16;100111.38;5002856;28;20195;-73
2021/04/05 01:46:11;;;;;;;14.95;5.80;;;5.80;99.90;;;6.49;71.95;100096.59;5035435;28;20226;-73
2021/04/05 01:48:38;;;;;;;15.35;5.72;;;5.80;99.90;;;6.48;71.92;100081.88;5008443;28;20725;-73
2021/04/05 01:51:07;;;;;;;16.50;6.07;;;5.80;99.90;;;6.47;71.99;100062.00;5020750;28;20197;-73
2021/04/05 01:53:35;;;;;;;15.48;6.00;;;5.80;99.90;;;6.44;71.68;100064.69;5017409;28;20202;-73
2021/04/05 01:56:04;;;;;;;14.30;6.15;;;5.80;99.90;;;6.40;72.13;100057.88;5003767;28;20207;-74
2021/04/05 01:58:35;;;;;;;17.77;6.22;;;5.70;99.90;;;6.41;72.20;100054.41;5008474;28;20206;-73
2021/04/05 02:01:05;;;;;;;16.33;5.93;;;5.70;99.90;;;6.46;71.82;100036.06;5002789;28;20190;-73
2021/04/05 02:03:32;;;;;;;19.15;6.43;;;5.70;99.90;;;6.47;71.83;100020.44;5020500;28;20289;-73
2021/04/05 02:06:03;;;;;;;22.25;7.00;;;5.70;99.90;;;6.43;71.83;100013.63;5017529;28;20316;-73
2021/04/05 02:08:32;;;;;;;18.05;6.88;;;5.70;99.90;;;6.42;71.76;100011.06;5033188;28;20234;-73
2021/04/05 02:11:02;;;;;;;17.42;6.95;;;5.70;99.90;;;6.42;71.86;99998.09;5024001;28;20230;-73
2021/04/05 02:13:29;;;;;;;17.35;6.70;;;5.70;99.90;;;6.42;71.69;99992.88;5003542;28;20268;-74
2021/04/05 02:15:56;;;;;;;16.58;7.63;;;5.70;99.90;;;6.42;71.72;99992.88;4996406;28;20218;-74
2021/04/05 02:18:25;;;;;;;18.15;7.13;;;5.70;99.90;;;6.40;71.68;99982.53;5004560;28;20191;-73
2021/04/05 02:20:54;;;;;;;19.50;6.75;;;5.70;99.90;;;6.38;71.58;99975.72;5020040;28;20313;-73
2021/04/05 02:23:23;;;;;;;16.25;6.50;;;5.70;99.90;;;6.35;71.74;99977.50;5004054;28;20684;-73
2021/04/05 02:26:10;;;;;;;15.90;6.85;;;5.60;99.90;;;6.34;71.43;99964.56;5010704;28;20238;-74
2021/04/05 02:28:41;;;;;;;16.85;6.72;;;5.60;99.90;;;6.30;71.94;99953.44;5000171;28;20209;-71
2021/04/05 02:31:10;;;;;;;18.30;7.05;;;5.60;99.90;;;6.28;71.70;99938.78;4996388;28;20197;-73
2021/04/05 02:33:40;;;;;;;22.65;8.15;;;5.60;99.90;;;6.29;71.59;99930.09;5004378;28;20190;-73
2021/04/05 02:36:10;;;;;;;19.55;7.40;;;5.60;99.90;;;6.24;71.47;99921.63;5003961;28;20226;-74
2021/04/05 02:38:38;;;;;;;20.40;8.07;;;5.50;99.90;;;6.24;71.61;99921.63;5003518;28;20248;-73
2021/04/05 02:41:06;;;;;;;19.83;7.85;;;5.50;99.90;;;6.29;71.45;99907.59;5005116;28;20204;-73
2021/04/05 02:43:34;;;;;;;19.35;7.82;;;5.50;99.90;;;6.29;71.50;99906.72;5009967;28;20276;-74
2021/04/05 02:46:02;;;;;;;24.30;8.18;;;5.50;99.90;;;6.26;71.41;99888.66;5018706;28;20220;-73
2021/04/05 02:48:33;;;;;;;18.33;7.63;;;5.50;99.90;;;6.27;71.65;99879.94;5018439;28;20593;-73
2021/04/05 02:51:04;;;;;;;20.40;7.97;;;5.50;99.90;;;6.29;71.37;99873.81;4998536;28;20202;-73
2021/04/05 02:53:32;;;;;;;20.67;8.17;;;5.50;99.90;;;6.34;71.30;99866.72;4994865;28;20202;-74
2021/04/05 02:56:02;;;;;;;20.90;8.70;;;5.60;99.90;;;6.34;70.98;99863.25;5018870;28;20201;-73
2021/04/05 02:58:29;;;;;;;19.63;8.20;;;5.60;99.90;;;6.32;71.39;99846.88;5001528;28;20198;-73
2021/04/05 03:00:56;;;;;;;22.95;7.45;;;5.60;99.90;;;6.27;71.34;99843.59;5002033;28;20970;-73
2021/04/05 03:03:22;;;;;;;24.48;8.00;;;5.50;99.90;;;6.23;71.21;99832.44;5008028;28;20330;-73
2021/04/05 03:05:51;;;;;;;19.70;7.47;;;5.50;99.90;;;6.16;71.34;99823.16;5004141;28;20209;-73
2021/04/05 03:08:17;;;;;;;18.73;7.13;;;5.50;99.90;;;6.15;71.42;99828.41;5019064;28;20199;-73
2021/04/05 03:10:44;;;;;;;19.73;7.78;;;5.40;99.90;;;6.14;71.55;99822.41;4998136;28;20190;-73
2021/04/05 03:13:11;;;;;;;19.13;6.95;;;5.40;99.90;;;6.09;71.50;99831.22;5003165;28;20288;-74
2021/04/05 03:15:39;;;;;;;21.90;8.73;;;5.40;99.90;;;6.03;71.59;99818.44;5023018;28;20421;-73
2021/04/05 03:18:07;;;;;;;23.67;8.13;;;5.30;99.90;;;6.04;71.90;99812.38;5020101;28;20186;-73
2021/04/05 03:20:36;;;;;;;22.23;7.63;;;5.30;99.90;;;6.04;71.45;99812.38;4997525;28;20773;-73
2021/04/05 03:23:04;;;;;;;21.75;7.85;;;5.30;99.90;;;6.03;71.60;99802.84;5002159;28;20193;-73
2021/04/05 03:25:32;;;;;;;22.38;7.60;;;5.30;99.90;;;6.04;71.43;99799.38;5002660;28;20207;-73
2021/04/05 03:27:58;;;;;;;18.85;7.68;;;5.30;99.90;;;6.09;71.69;99792.28;5003513;28;20190;-74
2021/04/05 03:30:31;;;;;;;21.38;7.40;;;5.40;99.90;;;6.12;71.34;99774.00;5017904;28;20218;-73
2021/04/05 03:33:07;;;;;;;19.75;6.88;;;5.40;99.90;;;6.12;71.35;99776.59;5002726;28;20774;-73
2021/04/05 03:35:39;;;;;;;16.45;6.63;;;5.40;99.90;;;6.12;71.39;99776.59;5021167;28;20568;-74
2021/04/05 03:38:09;;;;;;;21.25;7.57;;;5.40;99.90;;;6.13;71.19;99779.13;5018531;28;20202;-73
2021/04/05 03:40:36;;;;;;;20.23;7.30;;;5.40;99.90;;;6.15;71.20;99766.09;5000105;28;20198;-73
2021/04/05 03:43:16;;;;;;;19.52;7.45;;;5.40;99.90;;;6.15;71.23;99764.34;5018890;28;20237;-74
2021/04/05 03:45:49;;;;;;;18.88;6.95;;;5.40;99.90;;;6.13;71.19;99758.34;5010312;28;20256;-73
2021/04/05 03:48:24;;;;;;;20.52;7.30;;;5.40;99.90;;;6.11;71.14;99744.56;5033321;28;20663;-73
2021/04/05 03:51:02;;;;;;;18.23;7.05;;;5.40;99.90;;;6.15;71.01;99737.53;5008536;28;20732;-74
2021/04/05 03:53:39;;;;;;;22.55;7.70;;;5.40;99.90;;;6.15;71.04;99734.94;5004069;28;20245;-74
2021/04/05 03:56:12;;;;;;;22.55;7.82;;;5.40;99.90;;;6.18;71.19;99729.63;5000886;28;20194;-73
2021/04/05 03:58:45;;;;;;;23.58;7.70;;;5.50;99.90;;;6.17;70.84;99722.75;4997949;28;20301;-73
2021/04/05 04:01:14;;;;;;;20.92;7.88;;;5.50;99.90;;;6.19;71.22;99720.94;5016909;28;20206;-73
2021/04/05 04:03:53;;;;;;;20.45;7.78;;;5.50;99.90;;;6.15;71.18;99724.53;5019675;28;20275;-73
2021/04/05 04:06:24;;;;;;;23.05;7.82;;;5.50;99.90;;;6.12;71.16;99709.06;4995166;28;20210;-73
2021/04/05 04:08:55;;;;;;;21.80;7.68;;;5.50;99.90;;;6.14;71.22;99713.34;5007957;28;20221;-73
2021/04/05 04:11:27;;;;;;;22.90;8.70;;;5.50;99.90;;;6.19;70.88;99714.00;5005265;28;20738;-73
2021/04/05 04:13:56;;;;;;;24.10;8.40;;;5.50;99.90;;;6.21;71.00;99714.78;5007771;28;20194;-73
2021/04/05 04:16:25;;;;;;;23.67;8.75;;;5.50;99.90;;;6.26;70.79;99706.84;5000703;28;20679;-73
2021/04/05 04:18:55;;;;;;;23.02;8.90;;;5.50;99.90;;;6.28;70.44;99692.88;5018208;28;20218;-73
2021/04/05 04:21:22;;;;;;;23.55;8.57;;;5.60;99.90;;;6.28;70.78;99679.88;5012440;28;20206;-74
2021/04/05 04:23:49;;;;;;;24.58;9.32;;;5.60;99.90;;;6.33;70.44;99666.72;5014729;28;20207;-73
2021/04/05 04:26:19;;;;;;;21.70;8.38;;;5.60;99.90;;;6.36;70.54;99666.63;5006896;28;20268;-74
2021/04/05 04:28:46;;;;;;;25.60;9.48;;;5.70;99.90;;;6.37;70.36;99670.91;5012789;28;20588;-73
2021/04/05 04:31:13;;;;;;;23.05;8.07;;;5.70;99.90;;;6.33;70.62;99662.38;5001692;28;20243;-73
2021/04/05 04:33:39;;;;;;;22.40;9.15;;;5.70;99.90;;;6.31;70.51;99643.41;5018888;28;20229;-73
2021/04/05 04:36:07;;;;;;;26.52;10.25;;;5.60;99.90;;;6.35;70.43;99647.59;5002050;28;20206;-72
2021/04/05 04:38:35;;;;;;;25.35;9.68;;;5.70;99.90;;;6.37;70.38;99652.72;5018433;28;20263;-75
2021/04/05 04:41:01;;;;;;;25.90;9.05;;;5.70;99.90;;;6.38;70.46;99638.81;5035791;28;20190;-73
2021/04/05 04:43:29;;;;;;;25.05;9.50;;;5.70;99.90;;;6.42;70.22;99640.41;5009110;28;20614;-73
2021/04/05 04:45:55;;;;;;;26.10;9.98;;;5.70;99.90;;;6.44;69.97;99632.56;5020591;28;20693;-74
2021/04/05 04:48:21;;;;;;;26.52;10.45;;;5.70;99.90;;;6.46;69.96;99635.94;5007284;28;20187;-74
2021/04/05 04:50:48;;;;;;;31.65;10.68;;;5.70;99.90;;;6.44;69.73;99630.81;5002230;28;20573;-73
2021/04/05 04:53:14;;;;;;;30.55;10.70;;;5.70;99.90;;;6.45;69.77;99623.88;5023523;28;20205;-73
2021/04/05 04:55:42;;;;;;;29.27;9.95;;;5.80;99.90;;;6.47;69.87;99607.31;5035414;28;20263;-74
2021/04/05 04:58:08;;;;;;;28.85;10.43;;;5.80;99.90;;;6.48;69.77;99608.16;5025459;28;20198;-73
2021/04/05 05:00:36;;;;;;;31.33;10.60;;;5.80;99.90;;;6.53;69.99;99607.06;5027496;28;20205;-74
2021/04/05 05:03:06;;;;;;;32.08;10.85;;;5.80;99.90;;;6.56;69.69;99595.72;5046831;28;20178;-74
2021/04/05 05:05:35;;;;;;;32.83;10.98;;;5.90;99.90;;;6.53;69.64;99586.25;5049038;28;20209;-74
2021/04/05 05:08:04;;;;;;;28.77;11.10;;;5.90;99.90;;;6.52;69.99;99588.94;5026958;28;20189;-73
2021/04/05 05:10:32;;;;;;;30.77;11.40;;;5.90;99.90;;;6.50;69.58;99578.59;5025656;28;20262;-74
2021/04/05 05:12:59;;;;;;;32.50;12.15;;;5.90;99.90;;;6.51;69.87;99587.25;5029274;28;20194;-73
2021/04/05 05:15:33;;;;;;;30.92;11.98;;;5.90;99.90;;;6.52;69.91;99574.19;5032718;28;20218;-74
2021/04/05 05:18:01;;;;;;;29.42;11.32;;;5.90;99.90;;;6.56;69.85;99574.91;5027567;28;20186;-75
2021/04/05 05:20:28;;;;;;;33.22;11.95;;;5.90;99.90;;;6.58;69.99;99563.53;5062620;28;20222;-75
2021/04/05 05:23:00;;;;;;;30.15;11.50;;;5.90;99.90;;;6.61;69.87;99536.59;5030097;28;20547;-74
2021/04/05 05:25:29;;;;;;;28.92;11.82;;;6.00;99.90;;;6.63;69.83;99525.22;5033314;28;20182;-75
2021/04/05 05:28:03;;;;;;;37.53;12.20;;;6.00;99.90;;;6.68;69.70;99507.69;5032943;28;20195;-75
2021/04/05 05:30:31;;;;;;;30.27;11.82;;;6.00;99.90;;;6.72;69.69;99506.66;5024282;28;20213;-75
2021/04/05 05:33:03;;;;;;;30.38;11.57;;;6.00;99.90;;;6.76;69.81;99500.44;5038694;28;20237;-76
2021/04/05 05:35:32;;;;;;;33.83;12.60;;;6.10;99.90;;;6.77;69.61;99504.72;5007197;28;20199;-74
2021/04/05 05:38:01;;;;;;;31.38;12.20;;;6.10;99.90;;;6.77;69.53;99506.47;5013059;28;20263;-73
2021/04/05 05:40:29;;;;;;;32.85;13.25;;;6.10;99.90;;;6.81;69.62;99503.69;5016571;28;20226;-72
2021/04/05 05:43:16;;;;;;;31.25;12.23;;;6.20;99.90;;;6.85;69.33;99489.63;5026045;28;20182;-73
2021/04/05 05:46:12;;;;;;;31.77;11.38;;;6.20;99.90;;;6.86;69.74;99496.53;5004047;28;20269;-73
2021/04/05 05:48:59;;;;;;;35.22;12.73;;;6.20;99.90;;;6.86;69.64;99491.34;5026914;28;20222;-72
2021/04/05 05:51:42;;;;;;;32.75;12.88;;;6.20;99.90;;;6.87;69.50;99498.22;5008198;28;20209;-73
2021/04/05 05:54:36;;;;;;;36.40;12.18;;;6.20;99.90;;;6.92;69.43;99500.59;5029725;28;20189;-73
2021/04/05 05:57:13;;;;;;;29.33;12.15;;;6.20;99.90;;;6.95;69.63;99493.53;5010635;28;20210;-73
2021/04/05 05:59:49;;;;;;;31.90;11.82;;;6.30;99.90;;;6.96;69.31;99489.19;5023911;28;20794;-73
2021/04/05 06:02:39;;;;;;;27.67;12.05;;;6.30;99.90;;;7.01;69.58;99482.88;5013117;28;20203;-74
2021/04/05 06:05:26;;;;;;;33.00;11.95;;;6.40;99.90;;;7.03;69.90;99481.03;5001581;28;20222;-73
2021/04/05 06:08:19;;;;;;;28.23;11.88;;;6.40;99.90;;;7.07;69.52;99477.41;5010725;28;20570;-74
2021/04/05 06:10:59;;;;;;;32.30;12.25;;;6.50;99.90;;;7.13;69.45;99461.50;5005944;28;20241;-74
2021/04/05 06:13:43;;;;;;;33.03;12.00;;;6.50;99.90;;;7.17;69.32;99457.88;5012651;28;20723;-74
2021/04/05 06:16:31;;;;;;;33.72;11.63;;;6.50;99.90;;;7.23;69.39;99460.19;5004492;28;20235;-74
2021/04/05 06:19:23;;;;;;;30.90;12.07;;;6.60;99.90;;;7.28;69.63;99457.41;5008151;28;20240;-73
2021/04/05 06:22:01;;;;;;;36.83;12.00;;;6.70;99.90;;;7.31;69.28;99447.72;4994348;28;20195;-75
2021/04/05 06:24:43;;;;;;;29.40;11.43;;;6.70;99.90;;;7.32;69.31;99433.78;5009795;28;20252;-72
2021/04/05 06:27:20;;;;;;;32.20;11.48;;;6.80;99.90;;;7.33;69.30;99438.06;5001400;28;20232;-73
2021/04/05 06:30:05;;;;;;;33.30;12.05;;;6.80;99.90;;;7.38;69.28;99404.88;5021858;28;20567;-72
2021/04/05 06:32:47;;;;;;;30.88;12.43;;;6.80;99.90;;;7.40;69.47;99410.84;5008432;28;20194;-73
2021/04/05 06:36:24;;;;;;;28.30;11.95;;;6.90;99.90;;;7.44;69.25;99390.75;5017549;28;20233;-74
2021/04/05 06:39:02;;;;;;;31.60;12.40;;;6.90;99.90;;;7.48;69.23;99376.69;5021664;28;20237;-75
2021/04/05 06:42:16;;;;;;;35.33;12.13;;;6.90;99.90;;;7.51;69.42;99368.72;5033404;28;20199;-73
2021/04/05 06:45:21;;;;;;;35.08;11.93;;;6.90;99.90;;;7.53;69.66;99370.31;4995060;28;20217;-74
2021/04/05 06:48:36;;;;;;;31.10;11.98;;;6.90;99.90;;;7.54;69.33;99365.97;5009181;28;20324;-73
2021/04/05 06:51:14;;;;;;;34.25;12.05;;;7.00;99.90;;;7.62;69.33;99366.44;5005287;28;20190;-74
2021/04/05 06:54:24;;;;;;;36.90;13.05;;;7.00;99.90;;;7.64;69.41;99349.84;5004482;28;20229;-73
2021/04/05 06:57:07;;;;;;;37.33;12.43;;;7.10;99.90;;;7.64;69.16;99346.41;5004435;28;20190;-75
2021/04/05 06:59:56;;;;;;;32.60;11.45;;;7.10;99.90;;;7.67;69.32;99332.41;5005326;28;20229;-72
2021/04/05 07:03:06;;;;;;;32.22;11.57;;;7.10;99.90;;;7.72;69.53;99333.03;5016947;28;20248;-73
2021/04/05 07:06:00;;;;;;;29.92;11.18;;;7.20;99.90;;;7.77;69.37;99336.25;4998719;28;20315;-74
2021/04/05 07:08:37;;;;;;;28.98;10.82;;;7.20;99.90;;;7.79;69.22;99327.44;5008327;28;20209;-74
2021/04/05 07:11:20;;;;;;;31.33;11.77;;;7.20;99.90;;;7.78;69.69;99327.50;5007630;28;20611;-73
2021/04/05 07:14:02;;;;;;;34.10;12.32;;;7.20;99.90;;;7.78;70.42;99320.56;5022039;28;20572;-74
2021/04/05 07:16:50;;;;;;;31.88;11.95;;;7.20;99.90;;;7.75;70.95;99325.06;4998949;28;20273;-72
2021/04/05 07:19:43;;;;;;;36.85;12.77;;;7.20;99.90;;;7.68;71.69;99317.53;5003833;28;20217;-74
2021/04/05 07:22:21;;;;;;;36.95;12.75;;;7.10;99.90;;;7.63;72.33;99316.91;5012790;28;20202;-74
2021/04/05 07:24:56;;;;;;;27.80;12.10;;;7.00;99.90;;;7.58;72.96;99307.66;4999940;28;20655;-74
2021/04/05 07:27:37;;;;;;;34.17;13.68;;;6.90;99.90;;;7.54;73.11;99309.56;5006875;28;20217;-73
2021/04/05 07:30:13;;;;;;;35.78;13.48;;;6.90;99.90;;;7.50;73.70;99302.00;5006798;28;20226;-74
2021/04/05 07:32:54;;;;;;;32.00;12.63;;;6.80;99.90;;;7.47;74.27;99302.97;5011657;28;20205;-73
2021/04/05 07:35:29;;;;;;;33.33;12.73;;;6.80;99.90;;;7.48;74.50;99309.03;5011116;28;20888;-73
2021/04/05 07:38:06;;;;;;;32.70;12.07;;;6.70;99.90;;;7.43;75.17;99300.59;4999015;28;20225;-72
2021/04/05 07:40:52;;;;;;;30.52;12.55;;;6.70;99.90;;;7.39;75.11;99294.69;5003991;28;20321;-75
2021/04/05 07:43:34;;;;;;;32.55;12.95;;;6.60;99.90;;;7.32;75.87;99298.50;5023057;28;20204;-73
2021/04/05 07:46:23;;;;;;;34.33;13.45;;;6.60;99.90;;;7.33;76.09;99300.16;5004345;28;20300;-76
2021/04/05 07:49:07;;;;;;;28.27;12.45;;;6.60;99.90;;;7.31;76.27;99307.22;5017926;28;20296;-72
2021/04/05 07:51:46;;;;;;;32.42;12.65;;;6.50;99.90;;;7.24;76.71;99305.81;5006561;28;20202;-75
2021/04/05 07:54:17;;;;;;;36.05;12.90;;;6.50;99.90;;;7.20;77.23;99293.03;5001988;28;20186;-71
2021/04/05 07:56:55;;;;;;;36.20;13.27;;;6.50;99.90;;;7.16;77.61;99304.50;4998346;28;20254;-72
2021/04/05 07:59:38;;;;;;;30.98;12.77;;;6.50;99.90;;;7.11;78.44;99299.50;5005338;28;20700;-75
2021/04/05 08:02:25;;;;;;;36.35;13.48;;;6.50;99.90;;;7.05;78.79;99299.78;5012243;28;20194;-73
2021/04/05 08:05:05;;;;;;;33.97;13.27;;;6.40;99.90;;;7.02;79.69;99302.53;5014607;28;20190;-73
2021/04/05 08:07:44;;;;;;;37.22;13.48;;;6.40;99.90;;;6.95;79.97;99298.53;5003724;28;20225;-73
2021/04/05 08:10:19;;;;;;;33.45;13.70;;;6.30;99.90;;;6.86;80.82;99298.97;5010950;28;20217;-73
2021/04/05 08:12:54;;;;;;;32.50;12.48;;;6.30;99.90;;;6.79;81.75;99297.53;5030497;28;20662;-73
2021/04/05 08:15:38;;;;;;;33.88;12.95;;;6.20;99.90;;;6.75;82.38;99311.59;5012361;28;20204;-72
2021/04/05 08:18:20;;;;;;;33.15;12.80;;;6.10;99.90;;;6.69;82.83;99306.66;5009647;28;20190;-73
2021/04/05 08:20:55;;;;;;;39.72;12.07;;;6.10;99.90;;;6.65;83.82;99315.50;5025547;28;20203;-74
2021/04/05 08:23:36;;;;;;;46.83;14.35;;;6.10;99.90;;;6.61;84.31;99306.19;5019547;28;20216;-74
2021/04/05 08:26:22;;;;;;;39.40;14.18;;;6.10;99.90;;;6.60;84.95;99314.03;5006381;28;20726;-74
2021/04/05 08:28:59;;;;;;;31.23;13.43;;;6.10;99.90;;;6.55;85.05;99316.81;5003944;28;20214;-74
2021/04/05 08:31:53;;;;;;;37.00;14.93;;;6.00;99.90;;;6.50;85.87;99315.34;5007033;28;20205;-73
2021/04/05 08:34:37;;;;;;;37.78;13.85;;;6.00;99.90;;;6.50;86.53;99320.56;5022430;28;20293;-72
2021/04/05 08:37:20;;;;;;;36.85;13.30;;;5.90;99.90;;;6.54;87.19;99317.75;5022651;28;20190;-73
2021/04/05 08:40:01;;;;;;;36.90;13.75;;;6.00;99.90;;;6.54;87.34;99307.34;5017376;28;20224;-70
2021/04/05 08:42:34;;;;;;;36.38;13.18;;;6.00;99.90;;;6.52;87.54;99297.91;5008871;28;20182;-71
2021/04/05 08:45:12;;;;;;;43.03;13.93;;;5.90;99.90;;;6.48;88.02;99307.59;5016827;28;20195;-69
2021/04/05 08:47:44;;;;;;;39.50;15.55;;;5.90;99.90;;;6.46;88.31;99296.47;5003045;28;20218;-72
2021/04/05 08:50:16;;;;;;;41.38;14.18;;;5.90;99.90;;;6.45;88.82;99297.34;5005589;28;20332;-74
2021/04/05 08:52:45;;;;;;;39.30;16.02;;;5.90;99.90;;;6.47;89.56;99289.50;5025048;28;20538;-71
2021/04/05 08:55:20;;;;;;;41.47;14.43;;;5.90;99.90;;;6.54;89.83;99291.75;5008914;28;20202;-71
2021/04/05 08:57:54;;;;;;;40.90;15.20;;;5.90;99.90;;;6.58;90.07;99295.91;4999729;28;20728;-69
2021/04/05 09:00:24;;;;;;;39.33;14.73;;;6.00;99.90;;;6.60;89.84;99296.69;4994464;28;21162;-73
2021/04/05 09:02:56;;;;;;;43.97;15.43;;;6.00;99.90;;;6.61;89.96;99300.97;5013168;28;20677;-72
2021/04/05 09:05:26;;;;;;;42.03;14.95;;;6.00;99.90;;;6.59;90.23;99295.00;5004251;28;20225;-76
2021/04/05 09:08:04;;;;;;;38.85;15.40;;;6.00;99.90;;;6.57;90.44;99304.63;5022671;28;20606;-73
2021/04/05 09:10:34;;;;;;;36.78;15.38;;;6.00;99.90;;;6.57;90.46;99307.22;5001914;28;20248;-77
2021/04/05 09:13:09;;;;;;;41.47;15.68;;;6.00;99.90;;;6.55;90.60;99313.41;5023101;28;20621;-74
2021/04/05 09:16:38;;;;;;;43.45;14.52;;;5.90;99.90;;;6.48;90.71;99317.19;5009570;28;20736;-80
2021/04/05 09:19:55;;;;;;;39.13;14.70;;;5.90;99.90;;;6.43;91.25;99324.31;5024806;28;20311;-76
2021/04/05 09:22:59;;;;;;;39.80;15.20;;;5.90;99.90;;;6.32;91.16;99369.78;5006546;28;20858;-74
2021/04/05 09:25:49;;;;;;;32.58;10.15;;;5.80;99.90;;;6.14;91.33;99375.75;5009410;28;20206;-74
2021/04/05 09:28:57;;;;;;;14.00;5.43;;;5.60;99.90;;;5.85;91.47;99378.69;5000993;28;20569;-75
2021/04/05 09:31:54;;;;;;;10.98;3.20;;;5.40;99.90;;;5.65;91.68;99381.19;5003866;28;20206;-74
2021/04/05 09:35:05;;;;;;;8.95;2.40;;;5.20;99.90;;;5.47;92.13;99381.06;5027001;28;20202;-74
2021/04/05 09:38:14;;;;;;;8.77;2.10;;;4.90;99.90;;;5.42;92.42;99378.66;5023047;28;20221;-73
2021/04/05 09:41:09;;;;;;;10.38;1.70;;;4.90;99.90;;;5.50;92.61;99384.41;5002641;28;20202;-74
2021/04/05 09:44:15;;;;;;;6.20;1.90;;;4.90;99.90;;;5.51;92.64;99393.03;5030990;28;20675;-73
2021/04/05 09:47:37;;;;;;;6.93;2.00;;;4.90;99.90;;;5.53;92.62;99396.38;5001406;28;20218;-73
2021/04/05 09:50:26;;;;;;;7.18;1.55;;;4.90;99.90;;;5.45;92.06;99404.47;4935939;28;20329;-75
2021/04/05 09:53:31;;;;;;;7.57;1.67;;;4.90;99.90;;;5.34;91.78;99405.78;4973029;28;20235;-75
2021/04/05 09:56:03;;;;;;;9.18;3.08;;;4.80;99.90;;;5.35;91.79;99415.25;5011410;28;20617;-75
2021/04/05 09:58:36;;;;;;;12.48;2.70;;;4.80;99.90;;;5.45;91.93;99414.84;5015414;28;20296;-74
2021/04/05 10:01:09;;;;;;;4.68;1.60;;;4.90;99.90;;;5.53;91.65;99417.13;5013699;28;20265;-74
2021/04/05 10:03:43;;;;;;;5.18;1.60;;;4.90;99.90;;;5.55;91.87;99416.19;5019114;28;20194;-74
2021/04/05 10:06:14;;;;;;;5.10;1.33;;;4.90;99.90;;;5.53;91.29;99415.41;5027818;28;20228;-74
2021/04/05 10:08:44;;;;;;;3.28;1.10;;;4.90;99.90;;;5.56;91.08;99404.91;5028333;28;20219;-74
2021/04/05 10:11:12;;;;;;;3.77;1.20;;;4.90;99.90;;;5.52;90.84;99400.75;5012954;28;20190;-74
2021/04/05 10:13:50;;;;;;;12.27;4.47;;;4.90;99.90;;;5.57;90.83;99392.78;5025541;28;20209;-74
2021/04/05 10:16:20;;;;;;;8.32;2.85;;;4.90;99.90;;;5.73;90.68;99383.47;5017378;28;20181;-76
2021/04/05 10:18:50;;;;;;;7.25;2.03;;;5.00;99.90;;;5.87;90.21;99376.03;5031777;28;20794;-74
2021/04/05 10:21:19;;;;;;;8.50;2.17;;;5.10;99.90;;;5.89;89.60;99372.47;5015828;28;20193;-74
2021/04/05 10:23:47;;;;;;;6.43;1.98;;;5.20;99.90;;;5.99;89.53;99375.53;5035228;28;20182;-74
2021/04/05 10:26:15;;;;;;;8.60;2.22;;;5.20;99.90;;;6.09;89.10;99389.84;5031369;28;20216;-74
2021/04/05 10:28:45;;;;;;;6.72;2.30;;;5.30;99.90;;;6.19;88.94;99404.13;5032713;28;20222;-75
2021/04/05 10:31:18;;;;;;;2.80;1.00;;;5.40;99.90;;;6.20;88.57;99405.81;5042437;28;20223;-77
2021/04/05 10:33:50;;;;;;;5.85;1.65;;;5.40;99.90;;;6.15;88.21;99403.41;5033794;28;20248;-76
2021/04/05 10:36:23;;;;;;;7.03;1.90;;;5.40;99.90;;;6.21;88.63;99395.34;5021644;28;20199;-73
2021/04/05 10:38:52;;;;;;;6.55;1.80;;;5.60;99.90;;;6.40;88.81;99398.03;5006685;28;20229;-72
2021/04/05 10:41:23;;;;;;;3.80;1.58;;;5.80;99.90;;;6.44;88.18;99384.00;5011272;28;20211;-74
2021/04/05 10:43:53;;;;;;;13.82;4.03;;;5.80;99.90;;;6.43;87.71;99389.28;5031614;28;20565;-74
2021/04/05 10:46:26;;;;;;;8.75;3.13;;;5.90;99.90;;;6.49;87.65;99387.25;5021564;28;20209;-73
2021/04/05 10:48:58;;;;;;;5.22;1.50;;;6.00;99.90;;;6.50;87.05;99381.13;5034355;28;20218;-72
2021/04/05 10:51:30;;;;;;;7.00;1.90;;;6.00;99.90;;;6.52;87.10;99384.50;5019636;28;20198;-71
2021/04/05 10:54:02;;;;;;;4.95;1.38;;;6.10;99.90;;;6.47;86.10;99394.25;5032265;28;20320;-72
2021/04/05 10:56:35;;;;;;;6.97;2.00;;;6.00;99.90;;;6.36;85.76;99394.69;5008373;28;20203;-72